sensor_id;sensor_type;location;lat;lon;timestamp;pressure;altitude;pressure_sealevel;temperature;humidity
69749;BME280;57019;52.354;6.584;2022-11-13T00:01:17;102790.59;;;20.17;48.85
69749;BME280;57019;52.354;6.584;2022-11-13T00:03:43;102783.81;;;20.15;48.72
69749;BME280;57019;52.354;6.584;2022-11-13T00:06:10;102781.34;;;20.13;48.92
69749;BME280;57019;52.354;6.584;2022-11-13T00:08:35;102778.72;;;20.13;48.62
69749;BME280;57019;52.354;6.584;2022-11-13T00:11:07;102775.16;;;20.14;48.40
69749;BME280;57019;52.354;6.584;2022-11-13T00:13:33;102778.44;;;20.16;48.69
69749;BME280;57019;52.354;6.584;2022-11-13T00:16:04;102778.28;;;20.08;48.90
69749;BME280;57019;52.354;6.584;2022-11-13T00:18:30;102774.72;;;20.09;48.55
69749;BME280;57019;52.354;6.584;2022-11-13T00:20:57;102776.66;;;20.07;48.51
69749;BME280;57019;52.354;6.584;2022-11-13T00:23:30;102774.72;;;20.09;48.74
69749;BME280;57019;52.354;6.584;2022-11-13T00:26:03;102768.88;;;20.06;48.72
69749;BME280;57019;52.354;6.584;2022-11-13T00:28:29;102763.78;;;20.04;48.58
69749;BME280;57019;52.354;6.584;2022-11-13T00:31:01;102767.13;;;20.06;48.47
69749;BME280;57019;52.354;6.584;2022-11-13T00:33:27;102760.22;;;20.05;48.46
69749;BME280;57019;52.354;6.584;2022-11-13T00:36:00;102755.91;;;20.04;48.63
69749;BME280;57019;52.354;6.584;2022-11-13T00:38:26;102754.97;;;20.05;48.60
69749;BME280;57019;52.354;6.584;2022-11-13T00:40:52;102751.78;;;20.02;48.22
69749;BME280;57019;52.354;6.584;2022-11-13T00:43:17;102754.28;;;20.03;48.14
69749;BME280;57019;52.354;6.584;2022-11-13T00:45:43;102754.28;;;20.03;48.46
69749;BME280;57019;52.354;6.584;2022-11-13T00:48:08;102747.38;;;20.02;48.26
69749;BME280;57019;52.354;6.584;2022-11-13T00:50:34;102741.41;;;20.00;48.21
69749;BME280;57019;52.354;6.584;2022-11-13T00:53:00;102743.34;;;19.98;48.30
69749;BME280;57019;52.354;6.584;2022-11-13T00:55:26;102745.41;;;19.94;48.25
69749;BME280;57019;52.354;6.584;2022-11-13T00:57:51;102737.53;;;19.94;48.06
69749;BME280;57019;52.354;6.584;2022-11-13T01:00:17;102737.41;;;19.96;48.02
69749;BME280;57019;52.354;6.584;2022-11-13T01:02:42;102740.16;;;19.94;48.31
69749;BME280;57019;52.354;6.584;2022-11-13T01:05:08;102733.41;;;19.92;48.16
69749;BME280;57019;52.354;6.584;2022-11-13T01:07:35;102729.13;;;19.91;48.22
69749;BME280;57019;52.354;6.584;2022-11-13T01:10:02;102737.81;;;19.91;48.21
69749;BME280;57019;52.354;6.584;2022-11-13T01:12:27;102736.28;;;19.89;48.01
69749;BME280;57019;52.354;6.584;2022-11-13T01:14:52;102741.53;;;19.89;48.08
69749;BME280;57019;52.354;6.584;2022-11-13T01:17:18;102741.53;;;19.89;48.10
69749;BME280;57019;52.354;6.584;2022-11-13T01:19:46;102735.63;;;19.87;47.79
69749;BME280;57019;52.354;6.584;2022-11-13T01:22:11;102738.22;;;19.87;47.68
69749;BME280;57019;52.354;6.584;2022-11-13T01:24:38;102738.47;;;19.83;47.82
69749;BME280;57019;52.354;6.584;2022-11-13T01:27:03;102736.00;;;19.82;48.05
69749;BME280;57019;52.354;6.584;2022-11-13T01:29:28;102726.34;;;19.82;47.71
69749;BME280;57019;52.354;6.584;2022-11-13T01:31:54;102723.03;;;19.80;47.93
69749;BME280;57019;52.354;6.584;2022-11-13T01:34:19;102731.81;;;19.79;47.80
69749;BME280;57019;52.354;6.584;2022-11-13T01:36:44;102723.94;;;19.79;47.83
69749;BME280;57019;52.354;6.584;2022-11-13T01:39:11;102718.84;;;19.78;47.58
69749;BME280;57019;52.354;6.584;2022-11-13T01:41:38;102713.59;;;19.78;47.69
69749;BME280;57019;52.354;6.584;2022-11-13T01:44:08;102710.31;;;19.76;47.52
69749;BME280;57019;52.354;6.584;2022-11-13T01:46:40;102704.22;;;19.75;47.54
69749;BME280;57019;52.354;6.584;2022-11-13T01:52:02;102705.31;;;19.73;47.62
69749;BME280;57019;52.354;6.584;2022-11-13T01:54:31;102699.25;;;19.72;47.80
69749;BME280;57019;52.354;6.584;2022-11-13T01:56:58;102700.19;;;19.71;47.57
69749;BME280;57019;52.354;6.584;2022-11-13T01:59:30;102685.47;;;19.70;47.76
69749;BME280;57019;52.354;6.584;2022-11-13T02:01:57;102691.66;;;19.69;47.64
69749;BME280;57019;52.354;6.584;2022-11-13T02:04:23;102683.78;;;19.69;47.65
69749;BME280;57019;52.354;6.584;2022-11-13T02:07:02;102690.13;;;19.66;47.77
69749;BME280;57019;52.354;6.584;2022-11-13T02:09:43;102689.41;;;19.64;47.55
69749;BME280;57019;52.354;6.584;2022-11-13T02:12:13;102680.88;;;19.62;47.70
69749;BME280;57019;52.354;6.584;2022-11-13T02:14:42;102677.44;;;19.62;47.57
69749;BME280;57019;52.354;6.584;2022-11-13T02:17:12;102668.59;;;19.63;47.45
69749;BME280;57019;52.354;6.584;2022-11-13T02:19:42;102672.19;;;19.62;47.47
69749;BME280;57019;52.354;6.584;2022-11-13T02:22:23;102668.03;;;19.59;47.32
69749;BME280;57019;52.354;6.584;2022-11-13T02:24:50;102670.53;;;19.61;47.43
69749;BME280;57019;52.354;6.584;2022-11-13T02:27:26;102663.91;;;19.57;47.48
69749;BME280;57019;52.354;6.584;2022-11-13T02:29:53;102667.34;;;19.57;47.33
69749;BME280;57019;52.354;6.584;2022-11-13T02:32:20;102672.72;;;19.56;47.32
69749;BME280;57019;52.354;6.584;2022-11-13T02:34:47;102669.28;;;19.55;47.44
69749;BME280;57019;52.354;6.584;2022-11-13T02:37:13;102664.16;;;19.54;47.50
69749;BME280;57019;52.354;6.584;2022-11-13T02:39:39;102664.16;;;19.54;47.44
69749;BME280;57019;52.354;6.584;2022-11-13T02:42:04;102659.88;;;19.53;47.39
69749;BME280;57019;52.354;6.584;2022-11-13T02:44:30;102658.34;;;19.50;47.38
69749;BME280;57019;52.354;6.584;2022-11-13T02:46:55;102656.56;;;19.50;47.36
69749;BME280;57019;52.354;6.584;2022-11-13T02:49:20;102653.13;;;19.50;47.27
69749;BME280;57019;52.354;6.584;2022-11-13T02:51:47;102649.78;;;19.48;47.47
69749;BME280;57019;52.354;6.584;2022-11-13T02:54:12;102654.19;;;19.47;47.54
69749;BME280;57019;52.354;6.584;2022-11-13T02:56:38;102653.38;;;19.47;47.32
69749;BME280;57019;52.354;6.584;2022-11-13T02:59:03;102638.75;;;19.44;47.35
69749;BME280;57019;52.354;6.584;2022-11-13T03:01:28;102641.38;;;19.44;47.15
69749;BME280;57019;52.354;6.584;2022-11-13T03:03:54;102633.53;;;19.44;47.26
69749;BME280;57019;52.354;6.584;2022-11-13T03:06:19;102642.34;;;19.43;47.18
69749;BME280;57019;52.354;6.584;2022-11-13T03:08:44;102635.44;;;19.42;47.06
69749;BME280;57019;52.354;6.584;2022-11-13T03:11:10;102647.56;;;19.43;47.25
69749;BME280;57019;52.354;6.584;2022-11-13T03:13:37;102638.19;;;19.41;47.26
69749;BME280;57019;52.354;6.584;2022-11-13T03:16:13;102637.38;;;19.40;47.31
69749;BME280;57019;52.354;6.584;2022-11-13T03:18:39;102638.19;;;19.41;47.03
69749;BME280;57019;52.354;6.584;2022-11-13T03:21:07;102636.53;;;19.40;47.13
69749;BME280;57019;52.354;6.584;2022-11-13T03:23:33;102636.66;;;19.38;47.27
69749;BME280;57019;52.354;6.584;2022-11-13T03:26:06;102628.78;;;19.38;47.16
69749;BME280;57019;52.354;6.584;2022-11-13T03:28:33;102627.16;;;19.37;47.09
69749;BME280;57019;52.354;6.584;2022-11-13T03:30:58;102627.97;;;19.38;47.05
69749;BME280;57019;52.354;6.584;2022-11-13T03:33:25;102625.50;;;19.36;47.23
69749;BME280;57019;52.354;6.584;2022-11-13T03:35:51;102629.88;;;19.36;46.98
69749;BME280;57019;52.354;6.584;2022-11-13T03:38:18;102626.44;;;19.35;46.98
69749;BME280;57019;52.354;6.584;2022-11-13T03:40:43;102630.03;;;19.34;46.96
69749;BME280;57019;52.354;6.584;2022-11-13T03:43:08;102618.88;;;19.32;47.05
69749;BME280;57019;52.354;6.584;2022-11-13T03:45:34;102618.88;;;19.32;47.07
69749;BME280;57019;52.354;6.584;2022-11-13T03:47:59;102613.78;;;19.30;46.93
69749;BME280;57019;52.354;6.584;2022-11-13T03:50:25;102602.44;;;19.30;47.13
69749;BME280;57019;52.354;6.584;2022-11-13T03:52:51;102605.06;;;19.30;46.89
69749;BME280;57019;52.354;6.584;2022-11-13T03:55:16;102600.91;;;19.27;47.03
69749;BME280;57019;52.354;6.584;2022-11-13T03:57:43;102595.69;;;19.27;47.10
69749;BME280;57019;52.354;6.584;2022-11-13T04:00:10;102598.44;;;19.26;46.93
69749;BME280;57019;52.354;6.584;2022-11-13T04:02:36;102586.31;;;19.25;47.05
69749;BME280;57019;52.354;6.584;2022-11-13T04:05:02;102591.56;;;19.25;47.10
69749;BME280;57019;52.354;6.584;2022-11-13T04:07:27;102581.91;;;19.25;47.08
69749;BME280;57019;52.354;6.584;2022-11-13T04:09:53;102584.66;;;19.24;47.03
69749;BME280;57019;52.354;6.584;2022-11-13T04:12:18;102591.81;;;19.22;46.88
69749;BME280;57019;52.354;6.584;2022-11-13T04:14:43;102588.22;;;19.23;47.00
69749;BME280;57019;52.354;6.584;2022-11-13T04:17:10;102578.72;;;19.22;46.99
69749;BME280;57019;52.354;6.584;2022-11-13T04:19:37;102587.56;;;19.21;46.83
69749;BME280;57019;52.354;6.584;2022-11-13T04:22:02;102586.84;;;19.19;46.99
69749;BME280;57019;52.354;6.584;2022-11-13T04:24:29;102585.88;;;19.20;46.94
69749;BME280;57019;52.354;6.584;2022-11-13T04:26:55;102587.66;;;19.19;47.17
69749;BME280;57019;52.354;6.584;2022-11-13T04:29:20;102571.13;;;19.19;46.82
69749;BME280;57019;52.354;6.584;2022-11-13T04:31:45;102576.38;;;19.19;46.99
69749;BME280;57019;52.354;6.584;2022-11-13T04:34:11;102573.75;;;19.19;47.02
69749;BME280;57019;52.354;6.584;2022-11-13T04:36:39;102576.63;;;19.15;46.78
69749;BME280;57019;52.354;6.584;2022-11-13T04:39:04;102574.41;;;19.11;46.88
69749;BME280;57019;52.354;6.584;2022-11-13T04:41:31;102566.44;;;19.12;46.86
69749;BME280;57019;52.354;6.584;2022-11-13T04:44:15;102563.81;;;19.12;46.88
69749;BME280;57019;52.354;6.584;2022-11-13T04:46:41;102563.09;;;19.10;46.93
69749;BME280;57019;52.354;6.584;2022-11-13T04:49:06;102557.88;;;19.10;47.07
69749;BME280;57019;52.354;6.584;2022-11-13T04:51:31;102561.44;;;19.09;46.76
69749;BME280;57019;52.354;6.584;2022-11-13T04:53:57;102567.66;;;19.08;47.01
69749;BME280;57019;52.354;6.584;2022-11-13T04:56:22;102569.28;;;19.09;46.96
69749;BME280;57019;52.354;6.584;2022-11-13T04:58:47;102564.91;;;19.10;47.01
69749;BME280;57019;52.354;6.584;2022-11-13T05:01:13;102561.44;;;19.09;46.74
69749;BME280;57019;52.354;6.584;2022-11-13T05:03:38;102559.81;;;19.08;46.77
69749;BME280;57019;52.354;6.584;2022-11-13T05:06:05;102557.28;;;19.07;46.91
69749;BME280;57019;52.354;6.584;2022-11-13T05:08:32;102551.25;;;19.06;47.00
69749;BME280;57019;52.354;6.584;2022-11-13T05:10:57;102553.41;;;19.01;46.81
69749;BME280;57019;52.354;6.584;2022-11-13T05:13:23;102549.03;;;19.02;46.82
69749;BME280;57019;52.354;6.584;2022-11-13T05:15:49;102547.94;;;19.04;46.67
69749;BME280;57019;52.354;6.584;2022-11-13T05:18:14;102539.25;;;19.04;46.76
69749;BME280;57019;52.354;6.584;2022-11-13T05:20:40;102537.72;;;19.01;46.82
69749;BME280;57019;52.354;6.584;2022-11-13T05:23:05;102532.47;;;19.01;46.89
69749;BME280;57019;52.354;6.584;2022-11-13T05:25:30;102537.72;;;19.01;46.82
69749;BME280;57019;52.354;6.584;2022-11-13T05:27:57;102535.09;;;19.01;46.82
69749;BME280;57019;52.354;6.584;2022-11-13T05:30:23;102537.03;;;18.99;46.81
69749;BME280;57019;52.354;6.584;2022-11-13T05:32:49;102535.38;;;18.98;46.73
69749;BME280;57019;52.354;6.584;2022-11-13T05:35:15;102520.38;;;19.00;46.83
69749;BME280;57019;52.354;6.584;2022-11-13T05:37:41;102531.94;;;18.97;46.47
69749;BME280;57019;52.354;6.584;2022-11-13T05:40:06;102525.84;;;18.97;46.54
69749;BME280;57019;52.354;6.584;2022-11-13T05:42:33;102516.38;;;18.96;46.77
69749;BME280;57019;52.354;6.584;2022-11-13T05:44:58;102522.56;;;18.95;46.58
69749;BME280;57019;52.354;6.584;2022-11-13T05:47:24;102520.31;;;18.90;46.86
69749;BME280;57019;52.354;6.584;2022-11-13T05:49:49;102519.22;;;18.93;46.54
69749;BME280;57019;52.354;6.584;2022-11-13T05:52:14;102522.81;;;18.92;46.64
69749;BME280;57019;52.354;6.584;2022-11-13T05:54:40;102521.16;;;18.91;46.79
69749;BME280;57019;52.354;6.584;2022-11-13T05:57:05;102525.44;;;18.92;46.80
69749;BME280;57019;52.354;6.584;2022-11-13T05:59:30;102523.78;;;18.91;46.78
69749;BME280;57019;52.354;6.584;2022-11-13T06:01:56;102515.94;;;18.91;46.49
69749;BME280;57019;52.354;6.584;2022-11-13T06:04:22;102512.59;;;18.89;46.52
69749;BME280;57019;52.354;6.584;2022-11-13T06:06:49;102518.06;;;18.86;46.77
69749;BME280;57019;52.354;6.584;2022-11-13T06:09:17;102517.41;;;18.84;46.75
69749;BME280;57019;52.354;6.584;2022-11-13T06:11:43;102515.03;;;18.80;46.82
69749;BME280;57019;52.354;6.584;2022-11-13T06:14:08;102512.25;;;18.82;46.67
69749;BME280;57019;52.354;6.584;2022-11-13T06:16:36;102514.06;;;18.81;46.66
69749;BME280;57019;52.354;6.584;2022-11-13T06:19:07;102511.44;;;18.81;46.53
69749;BME280;57019;52.354;6.584;2022-11-13T06:21:36;102511.72;;;18.78;46.62
69749;BME280;57019;52.354;6.584;2022-11-13T06:24:02;102502.06;;;18.79;46.83
69749;BME280;57019;52.354;6.584;2022-11-13T06:26:30;102507.72;;;18.74;46.90
69749;BME280;57019;52.354;6.584;2022-11-13T06:28:58;102498.91;;;18.75;46.92
69749;BME280;57019;52.354;6.584;2022-11-13T06:31:26;102502.66;;;18.82;46.60
69749;BME280;57019;52.354;6.584;2022-11-13T06:33:52;102504.22;;;18.95;46.48
69749;BME280;57019;52.354;6.584;2022-11-13T06:36:23;102510.75;;;19.10;46.34
69749;BME280;57019;52.354;6.584;2022-11-13T06:38:49;102514.63;;;19.26;45.98
69749;BME280;57019;52.354;6.584;2022-11-13T06:41:16;102511.63;;;19.40;45.59
69749;BME280;57019;52.354;6.584;2022-11-13T06:43:43;102513.31;;;19.61;45.20
69749;BME280;57019;52.354;6.584;2022-11-13T06:46:17;102507.78;;;19.74;44.71
69749;BME280;57019;52.354;6.584;2022-11-13T06:48:43;102509.47;;;19.85;44.46
69749;BME280;57019;52.354;6.584;2022-11-13T06:51:15;102496.50;;;19.93;44.43
69749;BME280;57019;52.354;6.584;2022-11-13T06:53:41;102501.19;;;19.99;44.11
69749;BME280;57019;52.354;6.584;2022-11-13T06:56:07;102502.56;;;20.03;44.17
69749;BME280;57019;52.354;6.584;2022-11-13T06:58:34;102507.22;;;20.09;43.90
69749;BME280;57019;52.354;6.584;2022-11-13T07:01:17;102501.44;;;20.15;43.75
69749;BME280;57019;52.354;6.584;2022-11-13T07:03:43;102499.47;;;20.17;43.90
69749;BME280;57019;52.354;6.584;2022-11-13T07:06:11;102510.25;;;20.14;43.72
69749;BME280;57019;52.354;6.584;2022-11-13T07:08:38;102505.97;;;20.13;43.82
69749;BME280;57019;52.354;6.584;2022-11-13T07:11:04;102504.59;;;20.09;43.73
69749;BME280;57019;52.354;6.584;2022-11-13T07:13:32;102504.47;;;20.11;43.73
69749;BME280;57019;52.354;6.584;2022-11-13T07:16:05;102499.94;;;20.03;43.92
69749;BME280;57019;52.354;6.584;2022-11-13T07:18:31;102498.69;;;19.97;43.99
69749;BME280;57019;52.354;6.584;2022-11-13T07:20:57;102496.50;;;19.93;44.10
69749;BME280;57019;52.354;6.584;2022-11-13T07:23:22;102502.97;;;19.89;44.26
69749;BME280;57019;52.354;6.584;2022-11-13T07:25:51;102493.75;;;19.85;44.26
69749;BME280;57019;52.354;6.584;2022-11-13T07:28:16;102497.59;;;19.80;44.37
69749;BME280;57019;52.354;6.584;2022-11-13T07:30:42;102496.91;;;19.78;44.43
69749;BME280;57019;52.354;6.584;2022-11-13T07:33:07;102499.78;;;19.75;44.52
69749;BME280;57019;52.354;6.584;2022-11-13T07:35:33;102487.09;;;19.71;44.69
69749;BME280;57019;52.354;6.584;2022-11-13T07:38:02;102492.47;;;19.69;44.75
69749;BME280;57019;52.354;6.584;2022-11-13T07:40:27;102496.75;;;19.70;44.56
69749;BME280;57019;52.354;6.584;2022-11-13T07:42:57;102489.56;;;19.72;44.60
69749;BME280;57019;52.354;6.584;2022-11-13T07:45:23;102492.91;;;19.74;44.30
69749;BME280;57019;52.354;6.584;2022-11-13T07:47:49;102502.03;;;19.90;44.05
69749;BME280;57019;52.354;6.584;2022-11-13T07:50:15;102494.81;;;19.92;44.26
69749;BME280;57019;52.354;6.584;2022-11-13T07:52:40;102497.72;;;19.89;44.30
69749;BME280;57019;52.354;6.584;2022-11-13T07:55:07;102491.38;;;19.91;44.20
69749;BME280;57019;52.354;6.584;2022-11-13T07:57:33;102494.16;;;19.90;44.49
69749;BME280;57019;52.354;6.584;2022-11-13T07:59:58;102491.81;;;19.87;44.37
69749;BME280;57019;52.354;6.584;2022-11-13T08:02:23;102493.75;;;19.85;44.68
69749;BME280;57019;52.354;6.584;2022-11-13T08:04:49;102488.50;;;19.85;44.77
69749;BME280;57019;52.354;6.584;2022-11-13T08:07:14;102485.19;;;19.82;44.78
69749;BME280;57019;52.354;6.584;2022-11-13T08:09:39;102486.97;;;19.82;44.87
69749;BME280;57019;52.354;6.584;2022-11-13T08:12:05;102488.78;;;19.81;44.71
69749;BME280;57019;52.354;6.584;2022-11-13T08:14:30;102488.50;;;19.85;44.67
69749;BME280;57019;52.354;6.584;2022-11-13T08:16:55;102487.41;;;19.87;44.85
69749;BME280;57019;52.354;6.584;2022-11-13T08:19:21;102485.03;;;19.94;45.10
69749;BME280;57019;52.354;6.584;2022-11-13T08:21:46;102479.94;;;20.02;44.72
69749;BME280;57019;52.354;6.584;2022-11-13T08:24:11;102477.44;;;20.10;44.23
69749;BME280;57019;52.354;6.584;2022-11-13T08:26:37;102473.25;;;20.17;44.38
69749;BME280;57019;52.354;6.584;2022-11-13T08:29:03;102464.44;;;20.19;44.24
69749;BME280;57019;52.354;6.584;2022-11-13T08:31:29;102467.56;;;20.22;44.42
69749;BME280;57019;52.354;6.584;2022-11-13T08:33:54;102462.47;;;20.21;44.56
69749;BME280;57019;52.354;6.584;2022-11-13T08:36:19;102466.91;;;20.20;44.74
69749;BME280;57019;52.354;6.584;2022-11-13T08:38:46;102464.44;;;20.19;44.47
69749;BME280;57019;52.354;6.584;2022-11-13T08:41:12;102465.69;;;20.14;44.62
69749;BME280;57019;52.354;6.584;2022-11-13T08:43:38;102457.81;;;20.14;44.68
69749;BME280;57019;52.354;6.584;2022-11-13T08:46:03;102457.81;;;20.14;44.82
69749;BME280;57019;52.354;6.584;2022-11-13T08:48:28;102447.72;;;20.10;44.76
69749;BME280;57019;52.354;6.584;2022-11-13T08:50:55;102455.75;;;20.08;45.02
69749;BME280;57019;52.354;6.584;2022-11-13T08:53:21;102457.69;;;20.06;45.34
69749;BME280;57019;52.354;6.584;2022-11-13T08:55:48;102451.59;;;20.06;45.47
69749;BME280;57019;52.354;6.584;2022-11-13T08:58:13;102450.94;;;20.04;45.28
69749;BME280;57019;52.354;6.584;2022-11-13T09:00:39;102449.84;;;20.06;45.58
69749;BME280;57019;52.354;6.584;2022-11-13T09:03:05;102453.97;;;20.09;45.76
69749;BME280;57019;52.354;6.584;2022-11-13T09:05:30;102444.72;;;20.05;45.51
69749;BME280;57019;52.354;6.584;2022-11-13T09:07:57;102441.25;;;20.04;45.75
69749;BME280;57019;52.354;6.584;2022-11-13T09:10:24;102444.03;;;20.03;45.81
69749;BME280;57019;52.354;6.584;2022-11-13T09:12:57;102440.88;;;19.99;45.94
69749;BME280;57019;52.354;6.584;2022-11-13T09:15:23;102436.59;;;19.98;46.29
69749;BME280;57019;52.354;6.584;2022-11-13T09:17:48;102435.22;;;19.94;46.30
69749;BME280;57019;52.354;6.584;2022-11-13T09:20:14;102435.38;;;19.92;46.66
69749;BME280;57019;52.354;6.584;2022-11-13T09:22:39;102430.53;;;19.88;46.71
69749;BME280;57019;52.354;6.584;2022-11-13T09:25:05;102434.16;;;19.87;46.98
69749;BME280;57019;52.354;6.584;2022-11-13T09:27:32;102428.91;;;19.87;47.07
69749;BME280;57019;52.354;6.584;2022-11-13T09:29:57;102412.88;;;19.90;47.06
69749;BME280;57019;52.354;6.584;2022-11-13T09:32:23;102416.19;;;19.92;47.01
69749;BME280;57019;52.354;6.584;2022-11-13T09:34:51;102415.91;;;19.95;46.78
69749;BME280;57019;52.354;6.584;2022-11-13T09:37:16;102415.75;;;20.06;46.69
69749;BME280;57019;52.354;6.584;2022-11-13T09:39:41;102421.09;;;20.14;46.66
69749;BME280;57019;52.354;6.584;2022-11-13T09:42:14;102420.25;;;20.14;46.51
69749;BME280;57019;52.354;6.584;2022-11-13T09:44:45;102408.00;;;20.14;46.47
69749;BME280;57019;52.354;6.584;2022-11-13T09:47:17;102413.75;;;20.18;46.83
69749;BME280;57019;52.354;6.584;2022-11-13T09:50:04;102412.13;;;20.17;46.65
69749;BME280;57019;52.354;6.584;2022-11-13T09:52:34;102408.66;;;20.16;46.80
69749;BME280;57019;52.354;6.584;2022-11-13T09:55:01;102409.91;;;20.12;47.13
69749;BME280;57019;52.354;6.584;2022-11-13T09:57:41;102404.81;;;20.11;47.03
69749;BME280;57019;52.354;6.584;2022-11-13T10:00:14;102412.41;;;20.04;47.28
69749;BME280;57019;52.354;6.584;2022-11-13T10:05:21;102403.88;;;20.02;47.36
69749;BME280;57019;52.354;6.584;2022-11-13T10:07:58;102403.88;;;20.02;47.56
69749;BME280;57019;52.354;6.584;2022-11-13T10:10:48;102408.16;;;20.03;48.05
69749;BME280;57019;52.354;6.584;2022-11-13T10:13:30;102411.88;;;20.10;48.01
69749;BME280;57019;52.354;6.584;2022-11-13T10:16:10;102412.81;;;20.09;47.98
69749;BME280;57019;52.354;6.584;2022-11-13T10:18:39;102404.97;;;20.09;47.85
69749;BME280;57019;52.354;6.584;2022-11-13T10:21:23;102412.81;;;20.09;48.15
69749;BME280;57019;52.354;6.584;2022-11-13T10:24:13;102407.88;;;20.06;48.25
69749;BME280;57019;52.354;6.584;2022-11-13T10:26:39;102401.94;;;20.04;48.54
69749;BME280;57019;52.354;6.584;2022-11-13T10:29:11;102401.25;;;20.02;48.90
69749;BME280;57019;52.354;6.584;2022-11-13T10:31:44;102398.78;;;20.00;48.66
69749;BME280;57019;52.354;6.584;2022-11-13T10:34:11;102404.84;;;20.01;49.05
69749;BME280;57019;52.354;6.584;2022-11-13T10:36:38;102398.25;;;19.97;49.06
69749;BME280;57019;52.354;6.584;2022-11-13T10:39:08;102393.97;;;19.96;49.03
69749;BME280;57019;52.354;6.584;2022-11-13T10:41:53;102383.31;;;19.97;49.13
69749;BME280;57019;52.354;6.584;2022-11-13T10:44:32;102387.47;;;20.00;48.95
69749;BME280;57019;52.354;6.584;2022-11-13T10:47:14;102371.47;;;20.03;48.83
69749;BME280;57019;52.354;6.584;2022-11-13T10:49:40;102370.31;;;20.06;49.06
69749;BME280;57019;52.354;6.584;2022-11-13T10:54:48;102366.47;;;20.00;50.18
69749;BME280;57019;52.354;6.584;2022-11-13T10:57:29;102355.03;;;20.01;49.81
69749;BME280;57019;52.354;6.584;2022-11-13T10:59:55;102349.13;;;19.99;50.05
69749;BME280;57019;52.354;6.584;2022-11-13T11:02:23;102337.66;;;20.00;50.16
69749;BME280;57019;52.354;6.584;2022-11-13T11:05:18;102341.53;;;19.96;50.15
69749;BME280;57019;52.354;6.584;2022-11-13T11:07:44;102334.75;;;19.93;51.57
69749;BME280;57019;52.354;6.584;2022-11-13T11:10:33;102326.25;;;19.91;50.52
69749;BME280;57019;52.354;6.584;2022-11-13T11:13:11;102333.56;;;19.88;50.57
69749;BME280;57019;52.354;6.584;2022-11-13T11:15:47;102329.84;;;19.80;50.55
69749;BME280;57019;52.354;6.584;2022-11-13T11:18:34;102328.31;;;19.78;50.21
69749;BME280;57019;52.354;6.584;2022-11-13T11:21:06;102323.91;;;19.78;50.50
69749;BME280;57019;52.354;6.584;2022-11-13T11:26:34;102306.97;;;19.82;50.77
69749;BME280;57019;52.354;6.584;2022-11-13T11:29:16;102311.63;;;19.89;50.48
69749;BME280;57019;52.354;6.584;2022-11-13T11:32:00;102307.75;;;19.93;49.98
69749;BME280;57019;52.354;6.584;2022-11-13T11:34:42;102305.53;;;19.98;49.90
69749;BME280;57019;52.354;6.584;2022-11-13T11:37:14;102296.69;;;19.99;50.05
69749;BME280;57019;52.354;6.584;2022-11-13T11:39:58;102305.53;;;19.98;49.81
69749;BME280;57019;52.354;6.584;2022-11-13T11:42:58;102298.63;;;19.97;49.68
69749;BME280;57019;52.354;6.584;2022-11-13T11:45:28;102296.38;;;20.02;49.80
69749;BME280;57019;52.354;6.584;2022-11-13T11:47:57;102287.41;;;20.05;49.77
69749;BME280;57019;52.354;6.584;2022-11-13T11:54:05;102279.25;;;20.08;49.68
69749;BME280;57019;52.354;6.584;2022-11-13T11:56:45;102273.31;;;20.06;49.41
69749;BME280;57019;52.354;6.584;2022-11-13T12:16:07;102261.72;;;20.26;49.88
69749;BME280;57019;52.354;6.584;2022-11-13T12:27:31;102253.13;;;20.34;54.00
69749;BME280;57019;52.354;6.584;2022-11-13T12:30:13;102239.06;;;20.35;55.28
69749;BME280;57019;52.354;6.584;2022-11-13T12:33:18;102239.06;;;20.35;56.06
69749;BME280;57019;52.354;6.584;2022-11-13T12:35:46;102237.41;;;20.34;55.31
69749;BME280;57019;52.354;6.584;2022-11-13T12:38:35;102238.91;;;20.37;56.37
69749;BME280;57019;52.354;6.584;2022-11-13T12:41:15;102221.34;;;20.37;55.69
69749;BME280;57019;52.354;6.584;2022-11-13T12:43:50;102225.06;;;20.44;55.16
69749;BME280;57019;52.354;6.584;2022-11-13T12:46:17;102222.44;;;20.44;55.08
69749;BME280;57019;52.354;6.584;2022-11-13T12:48:45;102218.16;;;20.43;54.26
69749;BME280;57019;52.354;6.584;2022-11-13T12:51:16;102218.16;;;20.43;54.77
69749;BME280;57019;52.354;6.584;2022-11-13T12:53:53;102213.88;;;20.42;54.83
69749;BME280;57019;52.354;6.584;2022-11-13T12:59:25;102215.28;;;20.37;54.47
69749;BME280;57019;52.354;6.584;2022-11-13T13:02:00;102218.88;;;20.36;54.72
69749;BME280;57019;52.354;6.584;2022-11-13T13:09:54;102206.22;;;20.31;54.85
69749;BME280;57019;52.354;6.584;2022-11-13T13:12:37;102208.84;;;20.31;55.12
69749;BME280;57019;52.354;6.584;2022-11-13T13:15:37;102205.91;;;20.34;54.62
69749;BME280;57019;52.354;6.584;2022-11-13T13:18:08;102202.03;;;20.38;54.95
69749;BME280;57019;52.354;6.584;2022-11-13T13:20:37;102203.16;;;20.36;54.88
69749;BME280;57019;52.354;6.584;2022-11-13T13:23:04;102201.22;;;20.38;55.18
69749;BME280;57019;52.354;6.584;2022-11-13T13:25:32;102200.38;;;20.37;55.00
69749;BME280;57019;52.354;6.584;2022-11-13T13:27:59;102192.66;;;20.36;54.95
69749;BME280;57019;52.354;6.584;2022-11-13T13:30:26;102190.19;;;20.34;54.68
69749;BME280;57019;52.354;6.584;2022-11-13T13:36:00;102175.88;;;20.28;54.83
69749;BME280;57019;52.354;6.584;2022-11-13T13:46:31;102159.81;;;20.31;54.51
69749;BME280;57019;52.354;6.584;2022-11-13T13:49:04;102155.13;;;20.35;54.39
69749;BME280;57019;52.354;6.584;2022-11-13T13:51:39;102156.47;;;20.39;54.38
69749;BME280;57019;52.354;6.584;2022-11-13T13:54:07;102155.34;;;20.42;54.16
69749;BME280;57019;52.354;6.584;2022-11-13T13:56:38;102146.34;;;20.44;54.20
69749;BME280;57019;52.354;6.584;2022-11-13T13:59:05;102143.72;;;20.44;54.26